createdAt,value
2019-05-03T00:02:13.793Z,10.67
2019-05-03T00:04:43.926Z,10.68
2019-05-03T00:07:12.431Z,10.66
2019-05-03T00:09:42.645Z,10.70
2019-05-03T00:12:12.643Z,10.60
2019-05-03T00:14:42.890Z,10.57
2019-05-03T00:17:11.780Z,10.60
2019-05-03T00:19:42.212Z,10.66
2019-05-03T00:22:12.421Z,10.55
2019-05-03T00:24:42.679Z,10.49
2019-05-03T00:27:12.469Z,10.40
2019-05-03T00:29:41.838Z,10.43
2019-05-03T00:32:12.309Z,10.35
2019-05-03T00:34:42.303Z,10.38
2019-05-03T00:37:22.083Z,10.44
2019-05-03T00:39:58.006Z,10.45
2019-05-03T00:42:26.488Z,10.41
2019-05-03T00:44:55.194Z,10.36
2019-05-03T00:47:23.987Z,10.41
2019-05-03T00:49:52.421Z,10.41
2019-05-03T00:52:22.399Z,10.41
2019-05-03T00:54:52.880Z,10.38
2019-05-03T00:57:22.722Z,10.32
2019-05-03T00:59:52.859Z,10.32
2019-05-03T01:02:22.304Z,10.30
2019-05-03T01:04:51.781Z,10.24
2019-05-03T01:07:22.307Z,10.21
2019-05-03T01:09:51.808Z,10.26
2019-05-03T01:12:21.961Z,10.24
2019-05-03T01:14:52.159Z,10.11
2019-05-03T01:17:22.432Z,10.04
2019-05-03T01:19:52.154Z,10.07
2019-05-03T01:22:22.585Z,10.04
2019-05-03T01:24:51.880Z,10.04
2019-05-03T01:27:22.005Z,10.03
2019-05-03T01:29:51.945Z,10.00
2019-05-03T01:32:22.271Z,9.99
2019-05-03T01:34:52.386Z,9.99
2019-05-03T01:37:22.688Z,9.98
2019-05-03T01:39:52.594Z,9.96
2019-05-03T01:42:22.688Z,9.89
2019-05-03T01:44:52.289Z,9.86
2019-05-03T01:47:22.434Z,9.89
2019-05-03T01:49:52.494Z,9.81
2019-05-03T01:52:22.520Z,9.84
2019-05-03T01:54:52.174Z,9.90
2019-05-03T01:57:22.069Z,9.87
2019-05-03T01:59:52.091Z,9.83
2019-05-03T02:02:23.022Z,9.84
2019-05-03T02:05:08.519Z,9.89
2019-05-03T02:07:37.167Z,9.82
2019-05-03T02:10:07.781Z,9.83
2019-05-03T02:12:36.239Z,9.81
2019-05-03T02:15:07.044Z,9.79
2019-05-03T02:17:35.533Z,9.82
2019-05-03T02:20:05.645Z,9.78
2019-05-03T02:22:34.132Z,9.77
2019-05-03T02:25:02.534Z,9.80
2019-05-03T02:27:32.566Z,9.76
2019-05-03T02:30:03.026Z,9.72
2019-05-03T02:32:33.235Z,9.78
2019-05-03T02:35:02.813Z,9.63
2019-05-03T02:37:32.995Z,9.64
2019-05-03T02:40:04.304Z,9.61
2019-05-03T02:42:32.115Z,9.64
2019-05-03T02:45:01.086Z,9.66
2019-05-03T02:47:40.297Z,9.66
2019-05-03T02:50:10.415Z,9.71
2019-05-03T02:52:38.863Z,9.67
2019-05-03T02:55:08.329Z,9.69
2019-05-03T02:57:36.839Z,9.66
2019-05-03T03:00:07.860Z,9.61
2019-05-03T03:02:36.767Z,9.64
2019-05-03T03:05:05.959Z,9.52
2019-05-03T03:07:37.605Z,9.52
2019-05-03T03:10:07.864Z,9.53
2019-05-03T03:12:37.546Z,9.54
2019-05-03T03:15:06.422Z,9.51
2019-05-03T03:17:36.376Z,9.46
2019-05-03T03:20:07.304Z,9.41
2019-05-03T03:22:38.870Z,9.43
2019-05-03T03:25:09.001Z,9.39
2019-05-03T03:27:40.216Z,9.38
2019-05-03T03:30:29.882Z,9.32
2019-05-03T03:32:59.718Z,9.29
2019-05-03T03:35:31.485Z,9.22
2019-05-03T03:38:00.569Z,9.13
2019-05-03T03:40:30.723Z,9.17
2019-05-03T03:43:00.195Z,9.05
2019-05-03T03:45:28.720Z,9.03
2019-05-03T03:47:57.761Z,9.10
2019-05-03T03:50:26.986Z,8.98
2019-05-03T03:52:57.006Z,8.96
2019-05-03T03:55:26.588Z,8.95
2019-05-03T03:57:55.805Z,8.86
2019-05-03T04:00:25.882Z,8.83
2019-05-03T04:02:55.282Z,8.82
2019-05-03T04:05:25.404Z,8.69
2019-05-03T04:07:56.048Z,8.70
2019-05-03T04:10:26.118Z,8.67
2019-05-03T04:12:55.919Z,8.61
2019-05-03T04:15:26.757Z,8.66
2019-05-03T04:17:56.950Z,8.70
2019-05-03T04:20:27.511Z,8.71
2019-05-03T04:22:56.396Z,8.67
2019-05-03T04:25:26.231Z,8.71
2019-05-03T04:27:56.052Z,8.52
2019-05-03T04:30:25.651Z,8.43
2019-05-03T04:32:56.457Z,8.50
2019-05-03T04:35:26.640Z,8.57
2019-05-03T04:37:56.077Z,8.52
2019-05-03T04:40:25.957Z,8.54
2019-05-03T04:42:55.648Z,8.50
2019-05-03T04:45:25.624Z,8.46
2019-05-03T04:47:56.052Z,8.48
2019-05-03T04:50:25.504Z,8.55
2019-05-03T04:52:56.755Z,8.64
2019-05-03T04:55:26.721Z,8.63
2019-05-03T04:57:56.051Z,8.73
2019-05-03T05:00:25.659Z,8.38
2019-05-03T05:02:55.123Z,8.45
2019-05-03T05:05:26.052Z,8.59
2019-05-03T05:07:55.770Z,8.72
2019-05-03T05:10:25.997Z,8.81
2019-05-03T05:12:55.128Z,8.72
2019-05-03T05:15:26.243Z,8.70
2019-05-03T05:17:56.353Z,8.72
2019-05-03T05:20:29.210Z,8.75
2019-05-03T05:22:57.676Z,8.60
2019-05-03T05:25:30.368Z,8.63
2019-05-03T05:28:04.749Z,8.34
2019-05-03T05:30:35.367Z,8.45
2019-05-03T05:33:05.387Z,8.49
2019-05-03T05:35:35.231Z,8.44
2019-05-03T05:38:04.678Z,8.46
2019-05-03T05:40:34.913Z,8.42
2019-05-03T05:43:04.895Z,8.64
2019-05-03T05:45:34.835Z,8.79
2019-05-03T05:48:15.366Z,8.86
2019-05-03T05:50:45.214Z,8.89
2019-05-03T05:53:15.250Z,9.01
2019-05-03T05:55:51.333Z,8.93
2019-05-03T05:58:30.881Z,8.73
2019-05-03T06:01:00.913Z,8.73
2019-05-03T06:03:29.251Z,8.90
2019-05-03T06:05:59.297Z,9.03
2019-05-03T06:08:29.304Z,9.21
2019-05-03T06:11:16.919Z,9.27
2019-05-03T06:13:46.928Z,9.65
2019-05-03T06:16:29.269Z,10.09
2019-05-03T06:18:59.459Z,10.11
2019-05-03T06:21:35.789Z,10.30
2019-05-03T06:24:06.171Z,10.48
2019-05-03T06:26:34.910Z,10.65
2019-05-03T06:29:04.604Z,10.70
2019-05-03T06:31:51.391Z,11.01
2019-05-03T06:34:20.244Z,11.49
2019-05-03T06:36:51.551Z,12.27
2019-05-03T06:39:20.371Z,12.79
2019-05-03T06:41:48.874Z,13.29
2019-05-03T06:44:19.190Z,12.50
2019-05-03T06:46:51.410Z,12.37
2019-05-03T06:49:20.091Z,11.97
2019-05-03T06:51:49.864Z,11.54
2019-05-03T06:54:20.744Z,11.35
2019-05-03T06:56:48.666Z,12.02
2019-05-03T06:59:18.787Z,12.77
2019-05-03T07:02:00.724Z,13.33
2019-05-03T07:04:34.705Z,13.31
2019-05-03T07:07:05.292Z,13.36
2019-05-03T07:09:35.814Z,13.41
2019-05-03T07:12:04.662Z,13.69
2019-05-03T07:14:34.955Z,13.11
2019-05-03T07:17:05.383Z,12.56
2019-05-03T07:19:35.378Z,12.11
2019-05-03T07:22:05.002Z,12.16
2019-05-03T07:24:37.857Z,12.71
2019-05-03T07:27:05.460Z,13.10
2019-05-03T07:29:34.139Z,12.76
2019-05-03T07:32:02.514Z,12.56
2019-05-03T07:34:31.175Z,12.18
2019-05-03T07:36:59.964Z,12.15
2019-05-03T07:39:28.587Z,11.75
2019-05-03T07:41:56.982Z,11.95
2019-05-03T07:44:25.618Z,12.03
2019-05-03T07:46:55.478Z,11.90
2019-05-03T07:49:24.941Z,12.10
2019-05-03T07:51:55.365Z,12.43
2019-05-03T07:54:24.896Z,12.69
2019-05-03T07:56:55.008Z,12.48
2019-05-03T07:59:25.106Z,12.14
2019-05-03T08:01:55.331Z,12.14
2019-05-03T08:04:25.527Z,12.35
2019-05-03T08:06:54.918Z,12.77
2019-05-03T08:09:24.623Z,13.01
2019-05-03T08:11:54.726Z,12.48
2019-05-03T08:14:25.104Z,12.29
2019-05-03T08:16:54.829Z,12.86
2019-05-03T08:19:26.720Z,12.78
2019-05-03T08:21:56.474Z,13.66
2019-05-03T08:24:25.302Z,14.47
2019-05-03T08:26:55.780Z,14.38
2019-05-03T08:29:24.843Z,13.70
2019-05-03T08:31:58.535Z,14.31
2019-05-03T08:34:45.313Z,13.66
2019-05-03T08:37:15.485Z,14.43
2019-05-03T08:39:44.737Z,15.15
2019-05-03T08:42:17.816Z,15.46
2019-05-03T08:44:46.276Z,16.27
2019-05-03T08:47:15.512Z,15.67
2019-05-03T08:49:45.001Z,16.68
2019-05-03T08:52:15.553Z,17.00
2019-05-03T08:54:44.863Z,16.91
2019-05-03T08:57:14.969Z,16.12
2019-05-03T08:59:44.588Z,16.63
2019-05-03T09:02:14.357Z,15.07
2019-05-03T09:04:45.958Z,15.53
2019-05-03T09:07:14.752Z,14.60
2019-05-03T09:09:57.289Z,14.45
2019-05-03T09:12:25.775Z,14.98
2019-05-03T09:14:55.379Z,15.33
2019-05-03T09:17:24.649Z,16.09
2019-05-03T09:19:54.800Z,15.23
2019-05-03T09:22:25.421Z,16.03
2019-05-03T09:24:54.573Z,16.33
2019-05-03T09:27:24.758Z,16.25
2019-05-03T09:29:55.613Z,14.92
2019-05-03T09:32:25.500Z,14.55
2019-05-03T09:34:55.046Z,14.07
2019-05-03T09:37:25.035Z,14.35
2019-05-03T09:39:55.163Z,15.01
2019-05-03T09:42:24.828Z,14.48
2019-05-03T09:44:55.447Z,14.30
2019-05-03T09:47:25.214Z,14.43
2019-05-03T09:49:55.867Z,14.60
2019-05-03T09:52:24.995Z,15.23
2019-05-03T09:54:55.321Z,15.68
2019-05-03T09:57:24.758Z,16.16
2019-05-03T09:59:59.149Z,15.38
2019-05-03T10:02:24.613Z,14.30
2019-05-03T10:04:55.266Z,14.30
2019-05-03T10:07:25.801Z,14.30
2019-05-03T10:09:55.235Z,14.95
2019-05-03T10:12:25.652Z,15.40
2019-05-03T10:14:54.856Z,15.75
2019-05-03T10:17:25.286Z,16.30
2019-05-03T10:19:54.716Z,16.45
2019-05-03T10:22:26.316Z,15.83
2019-05-03T10:24:55.128Z,15.29
2019-05-03T10:27:25.176Z,14.20
2019-05-03T10:29:54.675Z,14.08
2019-05-03T10:32:25.633Z,14.39
2019-05-03T10:34:55.657Z,14.40
2019-05-03T10:37:31.736Z,13.97
2019-05-03T10:40:04.964Z,13.10
2019-05-03T10:42:32.244Z,12.66
2019-05-03T10:45:00.710Z,13.28
2019-05-03T10:47:29.123Z,12.77
2019-05-03T10:49:57.583Z,13.20
2019-05-03T10:52:27.945Z,12.65
2019-05-03T10:54:56.370Z,12.32
2019-05-03T10:57:26.347Z,12.54
2019-05-03T10:59:55.542Z,12.62
2019-05-03T11:02:28.411Z,12.75
2019-05-03T11:04:56.835Z,12.88
2019-05-03T11:07:25.781Z,12.98
2019-05-03T11:09:55.127Z,13.23
2019-05-03T11:12:25.398Z,12.78
2019-05-03T11:14:54.673Z,12.72
2019-05-03T11:17:23.161Z,12.35
2019-05-03T11:19:51.657Z,12.40
2019-05-03T11:22:20.475Z,12.47
2019-05-03T11:24:48.850Z,13.18
2019-05-03T11:27:18.951Z,14.04
2019-05-03T11:29:47.404Z,15.01
2019-05-03T11:32:17.449Z,15.16
2019-05-03T11:35:05.568Z,15.26
2019-05-03T11:37:50.689Z,15.35
2019-05-03T11:40:19.209Z,13.62
2019-05-03T11:42:48.472Z,13.65
2019-05-03T11:45:17.083Z,13.67
2019-05-03T11:47:45.909Z,12.88
2019-05-03T11:50:14.969Z,12.35
2019-05-03T11:52:46.834Z,12.82
2019-05-03T11:55:15.954Z,16.13
2019-05-03T11:57:44.958Z,17.93
2019-05-03T12:00:15.470Z,19.70
2019-05-03T12:02:45.849Z,21.85
2019-05-03T12:05:16.377Z,23.51
2019-05-03T12:07:45.520Z,24.32
2019-05-03T12:10:30.959Z,25.47
2019-05-03T12:13:01.623Z,24.65
2019-05-03T12:15:31.160Z,21.96
2019-05-03T12:18:01.739Z,20.91
2019-05-03T12:20:32.040Z,22.56
2019-05-03T12:23:01.387Z,23.96
2019-05-03T12:25:31.470Z,25.26
2019-05-03T12:28:00.778Z,25.02
2019-05-03T12:30:29.568Z,24.88
2019-05-03T12:32:58.010Z,22.56
2019-05-03T12:35:26.570Z,20.79
2019-05-03T12:37:55.518Z,19.58
2019-05-03T12:40:25.486Z,18.54
2019-05-03T12:42:55.228Z,17.96
2019-05-03T12:45:24.754Z,19.60
2019-05-03T12:47:53.350Z,19.04
2019-05-03T12:50:21.871Z,18.34
2019-05-03T12:52:50.852Z,19.27
2019-05-03T12:55:19.461Z,20.15
2019-05-03T12:57:47.901Z,21.29
2019-05-03T13:00:37.356Z,22.76
2019-05-03T13:03:07.554Z,22.93
2019-05-03T13:05:36.028Z,23.15
2019-05-03T13:08:35.235Z,23.37
2019-05-03T13:11:05.218Z,23.32
2019-05-03T13:13:35.890Z,20.71
2019-05-03T13:16:04.768Z,16.93
2019-05-03T13:18:35.121Z,16.40
2019-05-03T13:21:05.799Z,14.64
2019-05-03T13:23:35.363Z,14.23
2019-05-03T13:26:05.629Z,14.15
2019-05-03T13:28:34.564Z,13.29
2019-05-03T13:31:05.455Z,12.76
2019-05-03T13:33:34.768Z,12.92
2019-05-03T13:36:03.705Z,12.34
2019-05-03T13:38:34.705Z,12.80
2019-05-03T13:41:03.053Z,13.13
2019-05-03T13:43:31.620Z,12.36
2019-05-03T13:46:00.039Z,12.28
2019-05-03T13:48:41.691Z,12.69
2019-05-03T13:50:58.598Z,12.28
2019-05-03T13:53:27.321Z,13.01
2019-05-03T13:55:55.834Z,13.47
2019-05-03T13:58:26.420Z,13.88
2019-05-03T14:00:55.116Z,14.18
2019-05-03T14:03:23.674Z,14.37
2019-05-03T14:05:52.102Z,14.22
2019-05-03T14:08:20.570Z,14.59
2019-05-03T14:10:49.503Z,15.76
2019-05-03T14:13:18.374Z,17.15
2019-05-03T14:15:46.992Z,18.56
2019-05-03T14:18:15.647Z,18.55
2019-05-03T14:20:45.877Z,17.77
2019-05-03T14:23:14.861Z,16.83
2019-05-03T14:25:44.749Z,15.99
2019-05-03T14:28:14.565Z,15.21
2019-05-03T14:30:45.401Z,14.36
2019-05-03T14:33:18.565Z,14.04
2019-05-03T14:35:47.283Z,13.74
2019-05-03T14:38:15.660Z,13.27
2019-05-03T14:40:44.962Z,13.06
2019-05-03T14:43:15.398Z,12.86
2019-05-03T14:45:44.076Z,12.70
2019-05-03T14:48:12.669Z,12.74
2019-05-03T14:50:41.326Z,12.68
2019-05-03T14:53:09.750Z,12.68
2019-05-03T14:55:42.556Z,12.74
2019-05-03T14:58:18.746Z,12.72
2019-05-03T15:00:48.926Z,12.80
2019-05-03T15:03:21.773Z,12.93
2019-05-03T15:05:50.437Z,12.98
2019-05-03T15:08:19.265Z,13.02
2019-05-03T15:10:47.838Z,12.93
2019-05-03T15:13:16.285Z,12.89
2019-05-03T15:15:45.211Z,12.94
2019-05-03T15:18:14.964Z,12.98
2019-05-03T15:20:45.328Z,12.88
2019-05-03T15:23:14.735Z,12.78
2019-05-03T15:25:45.222Z,12.74
2019-05-03T15:28:13.970Z,12.68
2019-05-03T15:30:44.381Z,12.65
2019-05-03T15:33:23.520Z,12.64
2019-05-03T15:35:52.308Z,12.65
2019-05-03T15:38:21.334Z,12.51
2019-05-03T15:40:49.862Z,12.52
2019-05-03T15:43:36.640Z,12.55
2019-05-03T15:46:14.707Z,12.37
2019-05-03T15:48:47.229Z,12.30
2019-05-03T15:51:15.959Z,12.25
2019-05-03T15:53:44.803Z,12.24
2019-05-03T15:56:15.042Z,11.86
2019-05-03T15:58:46.422Z,12.12
2019-05-03T16:01:15.307Z,12.13
2019-05-03T16:03:44.907Z,12.00
2019-05-03T16:06:15.586Z,12.04
2019-05-03T16:08:44.621Z,11.90
2019-05-03T16:11:14.847Z,11.85
2019-05-03T16:13:44.826Z,11.64
2019-05-03T16:16:15.241Z,11.20
2019-05-03T16:18:44.801Z,11.44
2019-05-03T16:21:14.624Z,11.55
2019-05-03T16:23:46.256Z,11.39
2019-05-03T16:26:14.409Z,11.53
2019-05-03T16:28:50.296Z,11.70
2019-05-03T16:31:24.893Z,11.45
2019-05-03T16:33:55.016Z,11.32
2019-05-03T16:36:24.127Z,11.48
2019-05-03T16:38:53.105Z,11.45
2019-05-03T16:41:21.535Z,11.47
2019-05-03T16:43:50.164Z,11.70
2019-05-03T16:46:18.767Z,11.56
2019-05-03T16:48:47.342Z,11.55
2019-05-03T16:51:17.312Z,11.93
2019-05-03T16:53:45.978Z,12.09
2019-05-03T16:56:16.911Z,12.17
2019-05-03T16:58:45.261Z,11.58
2019-05-03T17:01:17.880Z,11.62
2019-05-03T17:03:47.150Z,11.67
2019-05-03T17:06:17.583Z,11.70
2019-05-03T17:08:50.575Z,11.77
2019-05-03T17:11:24.259Z,11.72
2019-05-03T17:13:52.802Z,11.59
2019-05-03T17:16:21.446Z,11.66
2019-05-03T17:18:49.993Z,11.08
2019-05-03T17:21:18.751Z,10.74
2019-05-03T17:23:47.310Z,10.83
2019-05-03T17:26:17.526Z,10.80
2019-05-03T17:28:45.961Z,10.54
2019-05-03T17:31:14.500Z,10.48
2019-05-03T17:33:51.515Z,10.65
2019-05-03T17:36:15.390Z,10.64
2019-05-03T17:38:44.448Z,10.82
2019-05-03T17:41:30.746Z,10.76
2019-05-03T17:44:04.972Z,10.76
2019-05-03T17:46:34.742Z,10.91
2019-05-03T17:49:05.234Z,10.83
2019-05-03T17:51:55.455Z,10.90
2019-05-03T17:54:25.817Z,10.97
2019-05-03T17:56:55.977Z,10.57
2019-05-03T17:59:26.233Z,10.53
2019-05-03T18:02:12.583Z,10.63
2019-05-03T18:04:51.988Z,10.46
2019-05-03T18:07:24.878Z,10.43
2019-05-03T18:09:55.343Z,10.53
2019-05-03T18:12:24.387Z,10.53
2019-05-03T18:14:53.202Z,10.52
2019-05-03T18:17:22.098Z,10.47
2019-05-03T18:19:50.699Z,10.16
2019-05-03T18:22:19.264Z,10.13
2019-05-03T18:24:47.945Z,10.05
2019-05-03T18:27:16.468Z,10.06
2019-05-03T18:29:45.206Z,10.05
2019-05-03T18:32:14.746Z,10.09
2019-05-03T18:34:45.224Z,10.08
2019-05-03T18:37:15.261Z,10.03
2019-05-03T18:39:45.254Z,10.11
2019-05-03T18:42:15.816Z,10.09
2019-05-03T18:44:48.995Z,10.00
2019-05-03T18:47:19.143Z,9.98
2019-05-03T18:49:47.592Z,9.98
2019-05-03T18:52:16.135Z,9.95
2019-05-03T18:54:44.773Z,9.84
2019-05-03T18:57:15.509Z,9.95
2019-05-03T18:59:44.920Z,9.89
2019-05-03T19:02:14.918Z,9.91
2019-05-03T19:04:45.359Z,9.88
2019-05-03T19:07:18.439Z,9.80
2019-05-03T19:09:52.029Z,9.91
2019-05-03T19:12:26.433Z,9.88
2019-05-03T19:14:57.970Z,9.79
2019-05-03T19:17:28.309Z,9.84
2019-05-03T19:19:58.310Z,9.75
2019-05-03T19:22:27.065Z,9.90
2019-05-03T19:24:55.693Z,9.94
2019-05-03T19:27:25.155Z,9.95
2019-05-03T19:29:55.402Z,9.88
2019-05-03T19:32:25.566Z,9.80
2019-05-03T19:34:54.936Z,9.81
2019-05-03T19:37:25.222Z,9.68
2019-05-03T19:39:55.255Z,9.81
2019-05-03T19:42:24.813Z,9.78
2019-05-03T19:44:55.305Z,9.79
2019-05-03T19:47:25.196Z,9.78
2019-05-03T19:49:54.685Z,9.76
2019-05-03T19:52:28.172Z,9.72
2019-05-03T19:54:56.622Z,9.74
2019-05-03T19:57:36.217Z,9.87
2019-05-03T20:00:07.231Z,9.90
2019-05-03T20:02:37.310Z,9.70
2019-05-03T20:05:08.596Z,9.74
2019-05-03T20:07:41.555Z,9.63
2019-05-03T20:10:10.603Z,9.56
2019-05-03T20:12:39.236Z,9.59
2019-05-03T20:15:07.912Z,9.60
2019-05-03T20:17:37.245Z,9.54
2019-05-03T20:20:08.024Z,9.49
2019-05-03T20:22:36.568Z,9.49
2019-05-03T20:25:05.930Z,9.43
2019-05-03T20:27:35.239Z,9.41
2019-05-03T20:30:07.590Z,9.33
2019-05-03T20:32:36.013Z,9.27
2019-05-03T20:35:16.609Z,9.53
2019-05-03T20:37:37.281Z,9.52
2019-05-03T20:40:06.793Z,9.57
2019-05-03T20:42:46.406Z,9.71
2019-05-03T20:45:17.198Z,9.64
2019-05-03T20:47:49.892Z,9.69
2019-05-03T20:50:18.385Z,9.35
2019-05-03T20:52:47.220Z,9.25
2019-05-03T20:55:15.868Z,9.41
2019-05-03T20:57:44.557Z,9.35
2019-05-03T21:00:14.941Z,9.11
2019-05-03T21:02:51.568Z,9.05
2019-05-03T21:05:24.660Z,9.16
2019-05-03T21:07:45.481Z,9.11
2019-05-03T21:10:15.966Z,9.24
2019-05-03T21:12:44.893Z,9.17
2019-05-03T21:15:24.712Z,9.29
2019-05-03T21:18:15.102Z,9.22
2019-05-03T21:20:45.128Z,9.14
2019-05-03T21:23:18.020Z,9.05
2019-05-03T21:26:12.488Z,8.98
2019-05-03T21:28:34.580Z,8.99
2019-05-03T21:31:05.423Z,9.02
2019-05-03T21:33:35.512Z,8.95
2019-05-03T21:36:04.728Z,8.94
2019-05-03T21:38:35.438Z,8.96
2019-05-03T21:41:05.171Z,8.97
2019-05-03T21:43:34.778Z,8.97
2019-05-03T21:46:15.142Z,9.03
2019-05-03T21:48:57.011Z,8.92
2019-05-03T21:51:25.516Z,8.92
2019-05-03T21:53:54.322Z,9.03
2019-05-03T21:56:24.983Z,9.00
2019-05-03T21:58:55.263Z,9.03
2019-05-03T22:01:25.900Z,9.06
2019-05-03T22:03:54.731Z,9.01
2019-05-03T22:06:24.659Z,9.11
2019-05-03T22:08:55.280Z,9.05
2019-05-03T22:11:25.142Z,9.04
2019-05-03T22:13:57.190Z,8.89
2019-05-03T22:16:39.404Z,8.86
2019-05-03T22:19:07.815Z,8.81
2019-05-03T22:21:55.154Z,8.75
2019-05-03T22:24:42.138Z,8.71
2019-05-03T22:27:12.484Z,8.78
2019-05-03T22:29:41.094Z,8.73
2019-05-03T22:32:09.725Z,8.56
2019-05-03T22:34:38.516Z,8.45
2019-05-03T22:37:07.378Z,8.50
2019-05-03T22:39:35.795Z,8.50
2019-05-03T22:42:04.661Z,8.47
2019-05-03T22:44:35.641Z,8.51
2019-05-03T22:47:05.524Z,8.52
2019-05-03T22:49:34.595Z,8.45
2019-05-03T22:52:04.933Z,8.53
2019-05-03T22:54:34.605Z,8.56
2019-05-03T22:57:04.822Z,8.46
2019-05-03T22:59:34.454Z,8.48
2019-05-03T23:02:02.984Z,8.48
2019-05-03T23:04:31.426Z,8.36
2019-05-03T23:06:59.809Z,8.32
2019-05-03T23:09:28.269Z,8.37
2019-05-03T23:11:56.650Z,8.39
2019-05-03T23:14:25.729Z,8.32
2019-05-03T23:16:54.301Z,8.32
2019-05-03T23:19:22.768Z,8.27
2019-05-03T23:21:54.471Z,8.21
2019-05-03T23:24:24.717Z,8.25
2019-05-03T23:26:53.414Z,8.17
2019-05-03T23:29:21.871Z,8.02
2019-05-03T23:31:50.714Z,7.97
2019-05-03T23:34:19.096Z,8.08
2019-05-03T23:36:47.542Z,7.95
2019-05-03T23:39:16.001Z,8.02
2019-05-03T23:41:44.499Z,8.00
2019-05-03T23:44:15.048Z,7.95
2019-05-03T23:46:50.289Z,7.88
2019-05-03T23:49:18.662Z,7.99
2019-05-03T23:51:48.680Z,8.02
2019-05-03T23:54:17.512Z,7.97
2019-05-03T23:56:46.045Z,8.07
2019-05-03T23:59:15.024Z,7.97
